Time;durP1;ratioP1;P1;durP2;ratioP2;P2;SDS_P1;SDS_P2;PMS_P1;PMS_P2;Temp;Humidity;BMP_temperature;BMP_pressure;BME280_temperature;BME280_humidity;BME280_pressure;Samples;Min_cycle;Max_cycle;Signal;HPM_P1;HPM_P2
2022/03/09 00:01:33;;;;;;;152.60;47.67;;;;;;;;;;5076406;28;20034;-77
2022/03/09 00:03:59;;;;;;;139.55;45.00;;;;;;;;;;5075204;28;20436;-77
2022/03/09 00:06:25;;;;;;;146.27;47.78;;;;;;;;;;5075096;28;20108;-78
2022/03/09 00:08:51;;;;;;;153.65;48.30;;;;;;;;;;5075244;28;20124;-77
2022/03/09 00:11:16;;;;;;;162.45;49.33;;;;;;;;;;5076235;28;20024;-78
2022/03/09 00:13:42;;;;;;;162.23;51.13;;;;;;;;;;5076045;28;20033;-77
2022/03/09 00:16:07;;;;;;;167.32;53.70;;;;;;;;;;5085134;28;20033;-77
2022/03/09 00:18:33;;;;;;;167.60;53.15;;;;;;;;;;5076059;28;20040;-78
2022/03/09 00:20:58;;;;;;;171.77;54.80;;;;;;;;;;5076135;28;20025;-77
2022/03/09 00:23:24;;;;;;;185.00;57.70;;;;;;;;;;5076120;28;20114;-78
2022/03/09 00:25:49;;;;;;;196.88;61.50;;;;;;;;;;5075948;28;20032;-78
2022/03/09 00:28:15;;;;;;;190.38;59.72;;;;;;;;;;5075725;28;20031;-78
2022/03/09 00:30:40;;;;;;;181.40;56.85;;;;;;;;;;5075965;28;20027;-78
2022/03/09 00:33:06;;;;;;;172.98;55.63;;;;;;;;;;5075964;28;20021;-77
2022/03/09 00:35:31;;;;;;;183.57;58.53;;;;;;;;;;5082579;28;20031;-77
2022/03/09 00:37:57;;;;;;;188.73;60.45;;;;;;;;;;5077945;28;20094;-78
2022/03/09 00:40:22;;;;;;;196.10;63.63;;;;;;;;;;5075786;28;20433;-78
2022/03/09 00:42:48;;;;;;;201.18;65.07;;;;;;;;;;5075436;28;20105;-78
2022/03/09 00:45:13;;;;;;;203.20;64.45;;;;;;;;;;5075743;28;20036;-78
2022/03/09 00:47:39;;;;;;;194.23;62.00;;;;;;;;;;5075798;28;20029;-77
2022/03/09 00:50:05;;;;;;;186.85;60.08;;;;;;;;;;5075452;28;20029;-78
2022/03/09 00:52:30;;;;;;;188.25;61.65;;;;;;;;;;5075789;28;20025;-78
2022/03/09 00:54:56;;;;;;;192.20;61.20;;;;;;;;;;5078110;28;20046;-78
2022/03/09 00:57:21;;;;;;;197.23;64.78;;;;;;;;;;5084233;28;20024;-78
2022/03/09 00:59:47;;;;;;;193.85;63.63;;;;;;;;;;5074090;28;20101;-78
2022/03/09 01:02:12;;;;;;;197.02;61.45;;;;;;;;;;5075165;28;20033;-77
2022/03/09 01:04:38;;;;;;;181.18;57.72;;;;;;;;;;5075396;28;20513;-77
2022/03/09 01:07:05;;;;;;;171.93;56.35;;;;;;;;;;5075956;28;20135;-78
2022/03/09 01:09:31;;;;;;;174.38;54.92;;;;;;;;;;5075073;28;20071;-78
2022/03/09 01:11:57;;;;;;;184.80;55.20;;;;;;;;;;5073757;28;20098;-78
2022/03/09 01:14:23;;;;;;;169.40;54.67;;;;;;;;;;5075002;28;20082;-79
2022/03/09 01:16:48;;;;;;;167.15;52.58;;;;;;;;;;5084397;28;20056;-77
2022/03/09 01:19:14;;;;;;;159.85;52.95;;;;;;;;;;5074924;28;20024;-77
2022/03/09 01:21:39;;;;;;;153.63;50.22;;;;;;;;;;5074964;28;20112;-77
2022/03/09 01:24:06;;;;;;;152.95;51.10;;;;;;;;;;5074801;28;20024;-77
2022/03/09 01:26:32;;;;;;;150.38;48.97;;;;;;;;;;5074633;28;20476;-77
2022/03/09 01:28:57;;;;;;;151.65;48.50;;;;;;;;;;5074717;28;20025;-77
2022/03/09 01:31:23;;;;;;;144.38;45.83;;;;;;;;;;5074766;28;20025;-78
2022/03/09 01:33:48;;;;;;;143.73;46.97;;;;;;;;;;5073603;28;20028;-77
2022/03/09 01:36:14;;;;;;;144.02;46.08;;;;;;;;;;5077781;28;20028;-76
2022/03/09 01:38:39;;;;;;;161.02;49.13;;;;;;;;;;5074916;28;20044;-77
2022/03/09 01:41:05;;;;;;;141.95;46.53;;;;;;;;;;5074302;28;20060;-77
2022/03/09 01:43:30;;;;;;;145.35;46.97;;;;;;;;;;5074536;28;20016;-78
2022/03/09 01:45:56;;;;;;;162.63;49.70;;;;;;;;;;5074742;28;20150;-78
2022/03/09 01:48:21;;;;;;;150.00;46.80;;;;;;;;;;5074516;28;20035;-78
2022/03/09 01:50:47;;;;;;;141.80;44.78;;;;;;;;;;5087686;28;20043;-78
2022/03/09 01:53:12;;;;;;;140.43;44.08;;;;;;;;;;5078199;28;20028;-77
2022/03/09 01:55:38;;;;;;;135.75;44.92;;;;;;;;;;5073861;28;20025;-78
2022/03/09 01:58:04;;;;;;;154.02;47.58;;;;;;;;;;5076242;28;20031;-78
2022/03/09 02:00:29;;;;;;;149.60;46.90;;;;;;;;;;5073130;28;20181;-78
2022/03/09 02:02:55;;;;;;;151.82;46.30;;;;;;;;;;5074313;28;20021;-78
2022/03/09 02:05:20;;;;;;;153.70;47.83;;;;;;;;;;5074189;28;20031;-78
2022/03/09 02:10:30;;;;;;;144.23;43.00;;;;;;;;;;5074017;28;20089;-77
2022/03/09 02:12:55;;;;;;;138.52;44.95;;;;;;;;;;5074043;28;20032;-77
2022/03/09 02:15:21;;;;;;;141.65;45.22;;;;;;;;;;5077686;28;20021;-78
2022/03/09 02:17:46;;;;;;;148.65;46.13;;;;;;;;;;5074711;28;20041;-77
2022/03/09 02:20:12;;;;;;;148.05;45.65;;;;;;;;;;5074070;28;20021;-78
2022/03/09 02:22:41;;;;;;;147.15;45.60;;;;;;;;;;5074114;28;20028;-78
2022/03/09 02:25:08;;;;;;;129.63;42.53;;;;;;;;;;5073738;28;20041;-77
2022/03/09 02:27:33;;;;;;;139.80;43.05;;;;;;;;;;5074031;28;20035;-78
2022/03/09 02:29:59;;;;;;;142.90;42.85;;;;;;;;;;5072887;28;20137;-77
2022/03/09 02:32:24;;;;;;;132.02;42.58;;;;;;;;;;5073973;28;20028;-77
2022/03/09 02:34:50;;;;;;;143.55;44.05;;;;;;;;;;5073930;28;20369;-78
2022/03/09 02:37:16;;;;;;;138.20;42.95;;;;;;;;;;5087098;28;20028;-78
2022/03/09 02:39:41;;;;;;;147.63;42.97;;;;;;;;;;5073330;28;20082;-78
2022/03/09 02:42:08;;;;;;;130.15;41.10;;;;;;;;;;5072847;28;20019;-78
2022/03/09 02:44:35;;;;;;;141.68;43.60;;;;;;;;;;5072739;28;20049;-77
2022/03/09 02:47:00;;;;;;;137.18;44.08;;;;;;;;;;5072042;28;20036;-78
2022/03/09 02:49:27;;;;;;;134.13;43.40;;;;;;;;;;5072686;28;20635;-78
2022/03/09 02:51:55;;;;;;;144.88;44.25;;;;;;;;;;5073480;28;20036;-78
2022/03/09 02:54:20;;;;;;;139.20;44.22;;;;;;;;;;5073709;28;20047;-78
2022/03/09 02:56:46;;;;;;;141.20;44.50;;;;;;;;;;5080840;28;20024;-77
2022/03/09 02:59:11;;;;;;;160.32;49.33;;;;;;;;;;5078379;28;20056;-78
2022/03/09 03:01:37;;;;;;;141.63;43.15;;;;;;;;;;5073642;28;20028;-78
2022/03/09 03:04:02;;;;;;;150.05;46.80;;;;;;;;;;5073574;28;20032;-77
2022/03/09 03:06:28;;;;;;;140.52;46.92;;;;;;;;;;5073454;28;20025;-77
2022/03/09 03:08:53;;;;;;;148.65;44.15;;;;;;;;;;5072540;28;20043;-79
2022/03/09 03:11:19;;;;;;;144.15;43.05;;;;;;;;;;5073691;28;20035;-77
2022/03/09 03:13:45;;;;;;;138.48;43.25;;;;;;;;;;5073699;28;20346;-79
2022/03/09 03:16:10;;;;;;;135.52;42.80;;;;;;;;;;5073360;28;20097;-78
2022/03/09 03:18:36;;;;;;;128.88;42.10;;;;;;;;;;5081112;28;20041;-76
2022/03/09 03:21:02;;;;;;;156.00;45.58;;;;;;;;;;5073297;28;20051;-76
2022/03/09 03:23:28;;;;;;;154.88;48.97;;;;;;;;;;5073443;28;20060;-76
2022/03/09 03:25:54;;;;;;;146.55;46.03;;;;;;;;;;5075696;28;20048;-77
2022/03/09 03:28:20;;;;;;;156.00;48.25;;;;;;;;;;5077355;28;20040;-76
2022/03/09 03:30:46;;;;;;;164.38;53.95;;;;;;;;;;5077053;28;20055;-76
2022/03/09 03:33:12;;;;;;;163.38;48.30;;;;;;;;;;5077074;28;20039;-76
2022/03/09 03:35:37;;;;;;;151.65;47.50;;;;;;;;;;5075450;28;20030;-77
2022/03/09 03:38:03;;;;;;;165.82;48.88;;;;;;;;;;5086268;28;20111;-76
2022/03/09 03:40:28;;;;;;;155.35;48.33;;;;;;;;;;5075770;28;20424;-76
2022/03/09 03:42:54;;;;;;;160.85;48.08;;;;;;;;;;5076798;28;20029;-76
2022/03/09 03:45:19;;;;;;;169.50;50.25;;;;;;;;;;5076666;28;20354;-76
2022/03/09 03:47:45;;;;;;;168.48;49.50;;;;;;;;;;5076778;28;20048;-75
2022/03/09 03:50:11;;;;;;;187.27;48.95;;;;;;;;;;5076588;28;20035;-76
2022/03/09 03:52:36;;;;;;;165.70;48.22;;;;;;;;;;5077462;28;20044;-76
2022/03/09 03:55:03;;;;;;;148.70;46.80;;;;;;;;;;5075295;28;20049;-77
2022/03/09 03:57:28;;;;;;;158.82;49.63;;;;;;;;;;5084545;28;20013;-77
2022/03/09 03:59:54;;;;;;;165.25;51.45;;;;;;;;;;5080223;28;20369;-77
2022/03/09 04:02:21;;;;;;;169.55;51.90;;;;;;;;;;5075505;28;20021;-77
2022/03/09 04:04:46;;;;;;;169.68;52.00;;;;;;;;;;5076085;28;20478;-77
2022/03/09 04:07:12;;;;;;;168.18;51.08;;;;;;;;;;5076580;28;20032;-76
2022/03/09 04:09:38;;;;;;;162.65;50.67;;;;;;;;;;5076394;28;20454;-76
2022/03/09 04:12:04;;;;;;;175.05;53.25;;;;;;;;;;5093091;28;20032;-76
2022/03/09 04:14:30;;;;;;;192.20;55.63;;;;;;;;;;5076554;28;20166;-76
2022/03/09 04:16:55;;;;;;;197.60;57.80;;;;;;;;;;5079537;28;20053;-77
2022/03/09 04:19:21;;;;;;;197.20;58.95;;;;;;;;;;5087803;28;20406;-77
2022/03/09 04:21:46;;;;;;;212.20;61.67;;;;;;;;;;5076197;28;20040;-77
2022/03/09 04:24:12;;;;;;;203.20;62.58;;;;;;;;;;5076085;28;20037;-76
2022/03/09 04:26:37;;;;;;;198.65;62.45;;;;;;;;;;5074863;28;20032;-76
2022/03/09 04:29:03;;;;;;;214.48;63.08;;;;;;;;;;5076089;28;20060;-76
2022/03/09 04:31:29;;;;;;;227.52;65.10;;;;;;;;;;5076032;28;20343;-76
2022/03/09 04:33:54;;;;;;;206.75;60.90;;;;;;;;;;5075681;28;20119;-78
2022/03/09 04:36:20;;;;;;;219.18;62.20;;;;;;;;;;5075811;28;20437;-77
2022/03/09 04:38:46;;;;;;;213.32;63.25;;;;;;;;;;5083995;28;20025;-76
2022/03/09 04:41:12;;;;;;;195.90;61.53;;;;;;;;;;5074695;28;20346;-77
2022/03/09 04:43:37;;;;;;;200.68;60.63;;;;;;;;;;5074741;28;20139;-76
2022/03/09 04:46:06;;;;;;;206.25;61.25;;;;;;;;;;5074413;28;20122;-76
2022/03/09 04:48:31;;;;;;;205.48;64.05;;;;;;;;;;5075438;28;20032;-76
2022/03/09 04:50:56;;;;;;;207.88;63.38;;;;;;;;;;5075761;28;20434;-77
2022/03/09 04:53:23;;;;;;;212.10;64.10;;;;;;;;;;5079245;28;20035;-76
2022/03/09 04:55:48;;;;;;;208.23;63.50;;;;;;;;;;5078113;28;20032;-77
2022/03/09 04:58:13;;;;;;;197.88;64.40;;;;;;;;;;5076607;28;20034;-76
2022/03/09 05:00:39;;;;;;;194.13;62.30;;;;;;;;;;5078660;28;20031;-76
2022/03/09 05:03:04;;;;;;;201.98;58.13;;;;;;;;;;5075066;28;20056;-77
2022/03/09 05:05:30;;;;;;;199.60;60.38;;;;;;;;;;5075324;28;20139;-77
2022/03/09 05:07:55;;;;;;;203.00;60.95;;;;;;;;;;5075168;28;20028;-76
2022/03/09 05:10:21;;;;;;;195.80;58.00;;;;;;;;;;5075001;28;20452;-74
2022/03/09 05:12:47;;;;;;;187.50;57.03;;;;;;;;;;5075077;28;20031;-74
2022/03/09 05:15:12;;;;;;;192.32;55.53;;;;;;;;;;5075582;28;20024;-74
2022/03/09 05:17:42;;;;;;;189.13;53.17;;;;;;;;;;5077402;28;20074;-75
2022/03/09 05:20:08;;;;;;;175.98;52.20;;;;;;;;;;5075758;28;20116;-74
2022/03/09 05:22:34;;;;;;;144.73;44.53;;;;;;;;;;5073521;28;20055;-74
2022/03/09 05:25:18;;;;;;;167.88;47.67;;;;;;;;;;5073527;28;20446;-76
2022/03/09 05:27:44;;;;;;;163.95;46.50;;;;;;;;;;5074610;28;20040;-74
2022/03/09 05:30:09;;;;;;;147.95;44.08;;;;;;;;;;5073629;28;20025;-75
2022/03/09 05:32:38;;;;;;;142.13;43.20;;;;;;;;;;5074472;28;20028;-74
2022/03/09 05:35:05;;;;;;;158.48;47.75;;;;;;;;;;5073865;28;20036;-77
2022/03/09 05:37:42;;;;;;;170.55;49.70;;;;;;;;;;5092634;28;20039;-89
2022/03/09 05:40:08;;;;;;;147.57;45.42;;;;;;;;;;5102345;28;20063;-88
2022/03/09 05:42:34;;;;;;;134.98;41.35;;;;;;;;;;5100302;28;20028;-88
2022/03/09 05:45:00;;;;;;;144.55;41.80;;;;;;;;;;5084409;28;20039;-87
2022/03/09 05:47:25;;;;;;;126.65;40.55;;;;;;;;;;5103705;28;20038;-87
2022/03/09 05:49:55;;;;;;;125.80;37.90;;;;;;;;;;5104706;28;20417;-89
2022/03/09 05:52:33;;;;;;;120.30;37.60;;;;;;;;;;5096892;28;20040;-89
2022/03/09 05:55:00;;;;;;;108.50;35.25;;;;;;;;;;5083510;28;20036;-90
2022/03/09 05:57:25;;;;;;;105.00;36.13;;;;;;;;;;5100281;28;20142;-89
2022/03/09 05:59:52;;;;;;;129.88;36.85;;;;;;;;;;5106850;28;20044;-87
2022/03/09 06:02:18;;;;;;;113.43;35.67;;;;;;;;;;5066452;28;20082;-88
2022/03/09 06:05:08;;;;;;;110.18;36.88;;;;;;;;;;5085818;28;20027;-83
2022/03/09 06:07:34;;;;;;;127.07;40.60;;;;;;;;;;5083239;28;20054;-88
2022/03/09 06:09:59;;;;;;;122.07;40.92;;;;;;;;;;5103396;28;20028;-84
2022/03/09 06:12:25;;;;;;;128.20;43.67;;;;;;;;;;5111100;28;20080;-83
2022/03/09 06:15:02;;;;;;;130.90;48.63;;;;;;;;;;5105594;28;20028;-88
2022/03/09 06:17:33;;;;;;;124.97;45.15;;;;;;;;;;5113647;28;20039;-90
2022/03/09 06:20:38;;;;;;;187.23;67.60;;;;;;;;;;5113802;28;20109;-85
2022/03/09 06:23:03;;;;;;;158.18;56.40;;;;;;;;;;5100009;28;20035;-87
2022/03/09 06:25:36;;;;;;;124.18;43.47;;;;;;;;;;5072046;28;20096;-83
2022/03/09 06:28:02;;;;;;;120.10;37.45;;;;;;;;;;5093067;28;20024;-82
2022/03/09 06:30:28;;;;;;;111.63;38.40;;;;;;;;;;5086984;28;20040;-85
2022/03/09 06:33:11;;;;;;;128.13;41.72;;;;;;;;;;5089007;28;20036;-82
2022/03/09 06:36:13;;;;;;;112.15;38.30;;;;;;;;;;5103601;28;20033;-84
2022/03/09 06:42:22;;;;;;;126.25;38.38;;;;;;;;;;5054643;28;20046;-83
2022/03/09 06:45:08;;;;;;;126.88;40.45;;;;;;;;;;5042113;28;20037;-85
2022/03/09 06:47:38;;;;;;;162.90;50.78;;;;;;;;;;5108918;28;20040;-86
2022/03/09 06:50:11;;;;;;;164.70;52.40;;;;;;;;;;5061921;28;20036;-86
2022/03/09 06:52:41;;;;;;;136.88;45.25;;;;;;;;;;5074447;28;20048;-88
2022/03/09 06:55:34;;;;;;;106.13;38.78;;;;;;;;;;5065475;28;20044;-86
2022/03/09 06:58:00;;;;;;;93.65;32.33;;;;;;;;;;5113472;28;20396;-87
2022/03/09 07:00:26;;;;;;;91.47;33.50;;;;;;;;;;5083788;28;20024;-90
2022/03/09 07:02:56;;;;;;;81.63;30.85;;;;;;;;;;5099896;28;20036;-85
2022/03/09 07:05:22;;;;;;;;;;;;;;;;;;5092481;28;20453;-91
2022/03/09 07:07:47;;;;;;;77.00;31.15;;;;;;;;;;5097169;28;19926;-90
2022/03/09 07:10:13;;;;;;;83.93;34.90;;;;;;;;;;5103437;28;20023;-88
2022/03/09 07:12:40;;;;;;;75.75;35.40;;;;;;;;;;5105090;28;20032;-87
2022/03/09 07:15:06;;;;;;;68.35;31.75;;;;;;;;;;5100611;28;20127;-88
2022/03/09 07:17:32;;;;;;;65.57;32.05;;;;;;;;;;5104268;28;20685;-89
2022/03/09 07:19:57;;;;;;;61.00;30.63;;;;;;;;;;5088153;28;20081;-89
2022/03/09 07:22:23;;;;;;;64.00;31.15;;;;;;;;;;5078719;28;20096;-86
2022/03/09 07:24:48;;;;;;;67.85;32.92;;;;;;;;;;5087113;28;20139;-89
2022/03/09 07:27:14;;;;;;;73.13;38.72;;;;;;;;;;5078240;28;20028;-83
2022/03/09 07:29:39;;;;;;;67.53;32.50;;;;;;;;;;5083397;28;20109;-87
2022/03/09 07:32:08;;;;;;;65.32;32.40;;;;;;;;;;5083762;28;20077;-88
2022/03/09 07:34:37;;;;;;;64.63;31.55;;;;;;;;;;5097795;28;20075;-84
2022/03/09 07:37:06;;;;;;;63.97;31.85;;;;;;;;;;5088982;28;20486;-88
2022/03/09 07:39:32;;;;;;;61.28;30.98;;;;;;;;;;5093249;28;20038;-90
2022/03/09 07:41:57;;;;;;;62.58;29.83;;;;;;;;;;5091893;28;20016;-91
2022/03/09 07:44:23;;;;;;;62.67;29.73;;;;;;;;;;5092649;28;20089;-85
2022/03/09 07:46:55;;;;;;;66.53;30.73;;;;;;;;;;5096105;28;20457;-86
2022/03/09 07:49:24;;;;;;;61.72;28.67;;;;;;;;;;5101942;28;20091;-86
2022/03/09 07:51:51;;;;;;;70.43;35.17;;;;;;;;;;5099053;28;20036;-89
2022/03/09 07:54:19;;;;;;;68.63;34.00;;;;;;;;;;5086770;28;20052;-89
2022/03/09 07:56:45;;;;;;;68.25;30.73;;;;;;;;;;5082044;28;20036;-85
2022/03/09 07:59:21;;;;;;;68.97;32.85;;;;;;;;;;5084581;28;20025;-89
2022/03/09 08:01:52;;;;;;;66.57;30.75;;;;;;;;;;5095323;28;20027;-88
2022/03/09 08:04:19;;;;;;;;;;;;;;;;;;5100113;28;20161;-89
2022/03/09 08:06:49;;;;;;;63.33;30.75;;;;;;;;;;5082506;28;19912;-84
2022/03/09 08:09:15;;;;;;;65.30;29.63;;;;;;;;;;5081297;28;20024;-83
2022/03/09 08:11:45;;;;;;;64.13;26.92;;;;;;;;;;5082007;28;20405;-83
2022/03/09 08:14:13;;;;;;;62.55;27.05;;;;;;;;;;5131450;27;20056;-79
2022/03/09 08:16:38;;;;;;;58.28;26.83;;;;;;;;;;5087147;28;20036;-83
2022/03/09 08:19:04;;;;;;;55.00;27.73;;;;;;;;;;5101424;28;20050;-80
2022/03/09 08:21:34;;;;;;;60.25;28.38;;;;;;;;;;5099100;28;20118;-85
2022/03/09 08:24:00;;;;;;;64.63;29.33;;;;;;;;;;5116898;27;20024;-81
2022/03/09 08:26:27;;;;;;;52.50;25.50;;;;;;;;;;5103281;28;20291;-87
2022/03/09 08:28:52;;;;;;;54.92;28.23;;;;;;;;;;5095448;28;20146;-87
2022/03/09 08:31:42;;;;;;;56.33;30.27;;;;;;;;;;5106742;27;20019;-86
2022/03/09 08:34:09;;;;;;;85.53;42.08;;;;;;;;;;5107377;28;20071;-86
2022/03/09 08:36:43;;;;;;;76.30;38.95;;;;;;;;;;5109366;28;20384;-90
2022/03/09 08:39:12;;;;;;;50.30;27.05;;;;;;;;;;5062756;28;20032;-84
2022/03/09 08:41:38;;;;;;;50.67;27.30;;;;;;;;;;5080133;28;20028;-87
2022/03/09 08:44:03;;;;;;;58.35;29.75;;;;;;;;;;5103579;28;20028;-87
2022/03/09 08:46:31;;;;;;;47.22;23.40;;;;;;;;;;5105057;28;20048;-88
2022/03/09 08:48:57;;;;;;;56.90;27.88;;;;;;;;;;5087397;28;20082;-85
2022/03/09 08:51:23;;;;;;;68.95;32.90;;;;;;;;;;5100588;28;20067;-84
2022/03/09 08:53:52;;;;;;;49.83;25.92;;;;;;;;;;5105343;28;20433;-83
2022/03/09 08:56:21;;;;;;;58.13;27.15;;;;;;;;;;5102306;28;20040;-83
2022/03/09 08:58:46;;;;;;;43.75;22.63;;;;;;;;;;5098445;27;20048;-82
2022/03/09 09:01:13;;;;;;;52.58;23.08;;;;;;;;;;5093412;28;20040;-85
2022/03/09 09:03:41;;;;;;;56.78;28.50;;;;;;;;;;5107774;27;20384;-87
2022/03/09 09:06:07;;;;;;;62.00;31.58;;;;;;;;;;5084169;28;20039;-82
2022/03/09 09:08:36;;;;;;;47.88;23.10;;;;;;;;;;5106129;28;20027;-81
2022/03/09 09:11:01;;;;;;;43.08;20.35;;;;;;;;;;5073388;28;20032;-81
2022/03/09 09:13:30;;;;;;;42.90;19.83;;;;;;;;;;5098672;28;20031;-80
2022/03/09 09:16:06;;;;;;;44.22;20.42;;;;;;;;;;5094041;28;20519;-79
2022/03/09 09:18:32;;;;;;;41.25;19.08;;;;;;;;;;5096568;28;20044;-87
2022/03/09 09:20:58;;;;;;;39.97;21.40;;;;;;;;;;5108823;28;20048;-82
2022/03/09 09:23:25;;;;;;;34.90;16.45;;;;;;;;;;5102406;28;20020;-84
2022/03/09 09:25:51;;;;;;;35.65;15.43;;;;;;;;;;5097326;28;20094;-79
2022/03/09 09:28:19;;;;;;;31.48;14.48;;;;;;;;;;5091335;28;20054;-81
2022/03/09 09:30:45;;;;;;;39.35;14.95;;;;;;;;;;5093201;28;20446;-81
2022/03/09 09:33:10;;;;;;;33.80;16.15;;;;;;;;;;5082342;28;20119;-82
2022/03/09 09:35:42;;;;;;;32.85;15.80;;;;;;;;;;5089746;28;20074;-82
2022/03/09 09:38:10;;;;;;;29.63;14.20;;;;;;;;;;5110137;28;20036;-80
2022/03/09 09:40:59;;;;;;;41.92;16.77;;;;;;;;;;5086950;28;20025;-83
2022/03/09 09:43:40;;;;;;;78.22;33.15;;;;;;;;;;5095591;28;20177;-84
2022/03/09 09:46:15;;;;;;;41.03;17.05;;;;;;;;;;5100552;28;20134;-85
2022/03/09 09:48:42;;;;;;;44.95;22.10;;;;;;;;;;5111763;28;20467;-83
2022/03/09 09:51:07;;;;;;;38.63;18.73;;;;;;;;;;5111155;28;20055;-85
2022/03/09 09:53:36;;;;;;;37.47;18.13;;;;;;;;;;5097862;28;20036;-85
2022/03/09 09:56:03;;;;;;;47.30;21.02;;;;;;;;;;5099577;28;20036;-84
2022/03/09 09:58:28;;;;;;;31.25;16.38;;;;;;;;;;5102239;28;20341;-82
2022/03/09 10:00:55;;;;;;;32.30;15.73;;;;;;;;;;5101013;28;20035;-86
2022/03/09 10:03:20;;;;;;;30.27;14.57;;;;;;;;;;5088469;28;20118;-85
2022/03/09 10:05:46;;;;;;;30.65;15.00;;;;;;;;;;5096797;28;20050;-82
2022/03/09 10:08:14;;;;;;;35.15;15.80;;;;;;;;;;5093688;28;20024;-85
2022/03/09 10:10:46;;;;;;;45.10;22.08;;;;;;;;;;5098835;28;20043;-85
2022/03/09 10:13:16;;;;;;;37.58;16.33;;;;;;;;;;5084566;28;20023;-84
2022/03/09 10:15:43;;;;;;;39.65;19.00;;;;;;;;;;5098190;28;20499;-82
2022/03/09 10:18:13;;;;;;;36.90;15.65;;;;;;;;;;5097086;28;20364;-83
2022/03/09 10:20:39;;;;;;;31.83;16.27;;;;;;;;;;5098671;28;20036;-79
2022/03/09 10:23:10;;;;;;;34.17;14.82;;;;;;;;;;5087744;28;20048;-80
2022/03/09 10:25:38;;;;;;;34.00;15.52;;;;;;;;;;5090498;28;20101;-84
2022/03/09 10:28:08;;;;;;;40.55;17.85;;;;;;;;;;5096308;28;20036;-84
2022/03/09 10:30:36;;;;;;;33.40;14.63;;;;;;;;;;5076186;28;20616;-80
2022/03/09 10:33:03;;;;;;;72.80;33.25;;;;;;;;;;5083601;28;20036;-86
2022/03/09 10:35:31;;;;;;;60.08;25.15;;;;;;;;;;5082103;28;20071;-89
2022/03/09 10:37:57;;;;;;;37.30;16.75;;;;;;;;;;5091544;28;20044;-87
2022/03/09 10:40:23;;;;;;;35.45;16.73;;;;;;;;;;5087203;28;20067;-87
2022/03/09 10:42:48;;;;;;;37.75;16.58;;;;;;;;;;5101941;28;20531;-89
2022/03/09 10:45:18;;;;;;;40.28;18.75;;;;;;;;;;5103898;28;20024;-90
2022/03/09 10:47:48;;;;;;;38.60;17.83;;;;;;;;;;5094517;28;20036;-87
2022/03/09 10:50:22;;;;;;;44.78;17.92;;;;;;;;;;5107660;28;20032;-89
2022/03/09 10:52:52;;;;;;;36.78;18.27;;;;;;;;;;5116450;28;20104;-88
2022/03/09 10:55:35;;;;;;;37.60;14.82;;;;;;;;;;5100075;28;20028;-92
2022/03/09 10:58:07;;;;;;;42.20;17.75;;;;;;;;;;5103285;28;20043;-87
2022/03/09 11:00:37;;;;;;;32.10;15.02;;;;;;;;;;5105648;28;20024;-85
2022/03/09 11:03:07;;;;;;;;;;;;;;;;;;5090853;28;20038;-88
2022/03/09 11:05:38;;;;;;;35.03;15.38;;;;;;;;;;5111996;28;19907;-86
2022/03/09 11:08:04;;;;;;;35.60;15.65;;;;;;;;;;5113171;28;20055;-86
2022/03/09 11:10:33;;;;;;;41.35;17.98;;;;;;;;;;5103736;28;20031;-89
2022/03/09 11:13:00;;;;;;;34.30;16.35;;;;;;;;;;5105074;28;20485;-87
2022/03/09 11:15:29;;;;;;;46.00;19.67;;;;;;;;;;5112482;28;20046;-88
2022/03/09 11:17:55;;;;;;;40.08;18.98;;;;;;;;;;5075612;28;20380;-86
2022/03/09 11:20:23;;;;;;;46.60;19.75;;;;;;;;;;5093948;28;20115;-89
2022/03/09 11:23:02;;;;;;;41.67;18.35;;;;;;;;;;5111472;28;20035;-86
2022/03/09 11:25:29;;;;;;;37.20;16.75;;;;;;;;;;5115884;28;20213;-87
2022/03/09 11:28:01;;;;;;;38.75;16.75;;;;;;;;;;5077856;28;20016;-88
2022/03/09 11:30:33;;;;;;;38.22;17.85;;;;;;;;;;5105698;28;20044;-87
2022/03/09 11:32:59;;;;;;;38.65;17.58;;;;;;;;;;5087303;28;20043;-87
2022/03/09 11:36:04;;;;;;;39.40;18.25;;;;;;;;;;5105709;28;20035;-89
2022/03/09 11:38:39;;;;;;;38.78;15.88;;;;;;;;;;5095054;28;20522;-87
2022/03/09 11:41:19;;;;;;;38.80;16.80;;;;;;;;;;5084106;28;20047;-86
2022/03/09 11:43:45;;;;;;;31.27;13.85;;;;;;;;;;5098425;28;20043;-92
2022/03/09 11:46:11;;;;;;;45.65;18.48;;;;;;;;;;5101936;28;20032;-87
2022/03/09 11:48:56;;;;;;;37.72;16.02;;;;;;;;;;5105947;28;20031;-89
2022/03/09 11:51:23;;;;;;;27.65;14.30;;;;;;;;;;5099882;28;20032;-89
2022/03/09 11:53:53;;;;;;;29.98;13.75;;;;;;;;;;5096182;28;20166;-89
2022/03/09 11:56:38;;;;;;;28.88;13.65;;;;;;;;;;5100297;28;20060;-90
2022/03/09 11:59:21;;;;;;;33.63;14.52;;;;;;;;;;5117402;27;20043;-86
2022/03/09 12:01:58;;;;;;;36.03;14.18;;;;;;;;;;5119501;27;20020;-89
2022/03/09 12:04:42;;;;;;;37.05;15.07;;;;;;;;;;5120612;28;20026;-90
2022/03/09 12:07:09;;;;;;;31.33;13.85;;;;;;;;;;5125539;28;20027;-89
2022/03/09 12:09:59;;;;;;;36.00;15.02;;;;;;;;;;5097910;28;20027;-85
2022/03/09 12:12:26;;;;;;;37.08;15.30;;;;;;;;;;5108837;28;20028;-86
2022/03/09 12:15:05;;;;;;;35.53;15.52;;;;;;;;;;5076015;28;20036;-85
2022/03/09 12:17:37;;;;;;;35.72;15.35;;;;;;;;;;5098938;28;20047;-86
2022/03/09 12:20:18;;;;;;;37.33;16.30;;;;;;;;;;5118714;28;20027;-82
2022/03/09 12:22:56;;;;;;;34.33;14.88;;;;;;;;;;5122519;28;20023;-86
2022/03/09 12:25:47;;;;;;;43.28;15.20;;;;;;;;;;5131485;28;20456;-87
2022/03/09 12:28:22;;;;;;;36.90;15.43;;;;;;;;;;5116946;28;20110;-85
2022/03/09 12:30:48;;;;;;;36.33;16.17;;;;;;;;;;5115965;28;20033;-83
2022/03/09 12:33:42;;;;;;;37.50;15.23;;;;;;;;;;5120745;28;20427;-87
2022/03/09 12:36:09;;;;;;;29.67;13.73;;;;;;;;;;5114526;28;20043;-85
2022/03/09 12:38:41;;;;;;;28.25;13.07;;;;;;;;;;5100992;28;20058;-90
2022/03/09 12:41:44;;;;;;;39.40;14.63;;;;;;;;;;5087643;28;20039;-88
2022/03/09 12:44:13;;;;;;;34.03;15.75;;;;;;;;;;5133519;28;20035;-85
2022/03/09 12:46:40;;;;;;;33.83;14.43;;;;;;;;;;5117095;28;20112;-82
2022/03/09 12:49:33;;;;;;;33.53;14.00;;;;;;;;;;5116656;28;20106;-85
2022/03/09 12:52:01;;;;;;;36.00;15.18;;;;;;;;;;5116699;28;20438;-89
2022/03/09 12:54:40;;;;;;;32.53;14.20;;;;;;;;;;5083206;28;20445;-89
2022/03/09 12:57:12;;;;;;;33.05;14.10;;;;;;;;;;5116165;27;20034;-88
2022/03/09 12:59:42;;;;;;;52.03;22.85;;;;;;;;;;5115841;28;20019;-83
2022/03/09 13:02:08;;;;;;;;;;;;;;;;;;5118324;28;20036;-81
2022/03/09 13:04:34;;;;;;;40.78;17.20;;;;;;;;;;5096865;28;19912;-83
2022/03/09 13:07:13;;;;;;;36.10;15.30;;;;;;;;;;5094007;28;20036;-84
2022/03/09 13:09:41;;;;;;;40.10;17.10;;;;;;;;;;5094439;28;20067;-86
2022/03/09 13:12:11;;;;;;;38.67;14.88;;;;;;;;;;5077783;28;20074;-87
2022/03/09 13:14:37;;;;;;;28.80;12.43;;;;;;;;;;5097511;28;20031;-83
2022/03/09 13:17:06;;;;;;;28.98;13.85;;;;;;;;;;5096353;28;20048;-87
2022/03/09 13:19:36;;;;;;;27.55;12.35;;;;;;;;;;5098412;28;20028;-83
2022/03/09 13:22:02;;;;;;;29.45;12.80;;;;;;;;;;5097133;28;20019;-84
2022/03/09 13:24:34;;;;;;;30.88;13.38;;;;;;;;;;5097041;28;20506;-82
2022/03/09 13:27:12;;;;;;;33.97;14.90;;;;;;;;;;5094738;28;20050;-85
2022/03/09 13:29:41;;;;;;;49.60;19.52;;;;;;;;;;5097335;28;20028;-83
2022/03/09 13:32:07;;;;;;;41.22;16.48;;;;;;;;;;5094683;28;20081;-83
2022/03/09 13:34:34;;;;;;;60.88;23.33;;;;;;;;;;5094789;28;20399;-87
2022/03/09 13:37:07;;;;;;;44.55;18.20;;;;;;;;;;5077709;28;20437;-83
2022/03/09 13:39:42;;;;;;;48.03;17.80;;;;;;;;;;5094379;28;20112;-78
2022/03/09 13:42:14;;;;;;;81.68;32.85;;;;;;;;;;5094767;28;20019;-79
2022/03/09 13:47:22;;;;;;;48.08;21.38;;;;;;;;;;5099421;22;20063;-80
2022/03/09 13:49:49;;;;;;;47.70;19.85;;;;;;;;;;5095477;28;20057;-79
2022/03/09 13:52:32;;;;;;;46.25;18.95;;;;;;;;;;5076466;28;20062;-78
2022/03/09 13:54:59;;;;;;;57.53;22.33;;;;;;;;;;5094774;28;20427;-78
2022/03/09 13:57:35;;;;;;;41.05;17.42;;;;;;;;;;5094255;28;20050;-78
2022/03/09 14:00:04;;;;;;;42.20;15.65;;;;;;;;;;5078365;28;20369;-80
2022/03/09 14:02:29;;;;;;;42.92;17.35;;;;;;;;;;5094612;28;20111;-80
2022/03/09 14:04:55;;;;;;;49.08;19.38;;;;;;;;;;5101159;28;20040;-90
2022/03/09 14:07:21;;;;;;;90.28;31.13;;;;;;;;;;5086741;28;20035;-91
2022/03/09 14:10:12;;;;;;;46.67;18.58;;;;;;;;;;5077999;28;20381;-87
2022/03/09 14:12:43;;;;;;;78.55;32.95;;;;;;;;;;5096379;28;20089;-88
2022/03/09 14:15:09;;;;;;;69.60;29.75;;;;;;;;;;5044975;28;20020;-89
2022/03/09 14:17:35;;;;;;;83.55;36.47;;;;;;;;;;5045534;28;20024;-85
2022/03/09 14:20:01;;;;;;;68.75;26.92;;;;;;;;;;5082575;28;20376;-91
2022/03/09 14:22:43;;;;;;;132.93;51.67;;;;;;;;;;5048687;28;20032;-88
2022/03/09 14:25:09;;;;;;;96.63;40.42;;;;;;;;;;5083491;28;20015;-86
2022/03/09 14:27:35;;;;;;;66.28;27.13;;;;;;;;;;5127474;28;20445;-91
2022/03/09 14:30:12;;;;;;;54.72;20.50;;;;;;;;;;5046433;28;20100;-90